createdAt,value
2023-07-25T00:04:53.828Z,82.44
2023-07-25T00:09:56.507Z,82.82
2023-07-25T00:14:58.957Z,83.52
2023-07-25T00:20:13.088Z,83.48
2023-07-25T00:25:19.910Z,83.45
2023-07-25T00:30:25.586Z,83.11
2023-07-25T00:35:30.460Z,82.94
2023-07-25T00:40:32.477Z,82.92
2023-07-25T00:45:37.513Z,82.60
2023-07-25T00:50:40.028Z,82.32
2023-07-25T00:56:18.451Z,81.26
2023-07-25T01:01:54.674Z,81.17
2023-07-25T01:07:13.609Z,81.22
2023-07-25T01:12:21.427Z,81.60
2023-07-25T01:17:27.959Z,81.60
2023-07-25T01:23:00.424Z,81.55
2023-07-25T01:28:38.498Z,81.54
2023-07-25T01:33:46.218Z,80.86
2023-07-25T01:39:34.038Z,81.14
2023-07-25T01:45:02.076Z,82.10
2023-07-25T01:50:12.397Z,82.75
2023-07-25T01:55:23.510Z,82.82
2023-07-25T02:00:31.507Z,82.93
2023-07-25T02:05:52.045Z,83.06
2023-07-25T02:11:24.974Z,82.78
2023-07-25T02:16:48.953Z,82.61
2023-07-25T02:22:24.028Z,82.38
2023-07-25T02:28:20.919Z,80.72
2023-07-25T02:34:03.279Z,80.71
2023-07-25T02:39:49.330Z,81.11
2023-07-25T02:45:17.853Z,81.13
2023-07-25T02:50:23.905Z,80.85
2023-07-25T02:55:27.261Z,80.18
2023-07-25T03:00:55.409Z,80.17
2023-07-25T03:06:01.094Z,80.03
2023-07-25T03:11:06.222Z,80.28
2023-07-25T03:16:16.597Z,80.25
2023-07-25T03:21:27.348Z,80.49
2023-07-25T03:26:52.991Z,80.35
2023-07-25T03:32:05.691Z,80.45
2023-07-25T03:37:15.983Z,80.49
2023-07-25T03:42:26.828Z,80.66
2023-07-25T03:47:50.128Z,81.16
2023-07-25T03:53:18.841Z,81.03
2023-07-25T03:58:31.088Z,79.96
2023-07-25T04:03:46.834Z,79.03
2023-07-25T04:09:12.277Z,78.79
2023-07-25T04:14:23.008Z,78.39
2023-07-25T04:19:30.267Z,77.94
2023-07-25T04:24:41.454Z,77.60
2023-07-25T04:30:37.213Z,77.03
2023-07-25T04:36:08.858Z,76.69
2023-07-25T04:42:15.305Z,76.17
2023-07-25T04:48:12.598Z,75.92
2023-07-25T04:53:42.652Z,75.69
2023-07-25T04:58:55.061Z,75.34
2023-07-25T05:04:28.051Z,74.87
2023-07-25T05:09:38.081Z,74.48
2023-07-25T05:14:53.058Z,73.94
2023-07-25T05:20:14.578Z,73.68
2023-07-25T05:25:31.288Z,73.54
2023-07-25T05:30:47.165Z,73.04
2023-07-25T05:36:04.699Z,72.91
2023-07-25T05:41:30.737Z,72.34
2023-07-25T05:46:53.766Z,72.06
2023-07-25T05:52:40.646Z,71.49
2023-07-25T05:57:45.888Z,70.85
2023-07-25T06:02:48.014Z,70.17
2023-07-25T06:07:52.917Z,69.74
2023-07-25T06:13:07.201Z,69.35
2023-07-25T06:18:34.955Z,69.31
2023-07-25T06:23:40.982Z,68.56
2023-07-25T06:28:52.240Z,68.08
2023-07-25T06:33:54.493Z,66.37
2023-07-25T06:39:01.342Z,64.65
2023-07-25T06:44:06.593Z,64.21
2023-07-25T06:49:11.232Z,63.96
2023-07-25T06:54:16.265Z,62.81
2023-07-25T06:59:30.849Z,62.35
2023-07-25T07:04:38.899Z,59.88
2023-07-25T07:09:57.666Z,61.45
2023-07-25T07:15:22.787Z,60.91
2023-07-25T07:20:32.616Z,59.56
2023-07-25T07:25:37.998Z,59.27
2023-07-25T07:30:40.985Z,58.80
2023-07-25T07:35:46.383Z,59.51
2023-07-25T07:40:54.285Z,58.98
2023-07-25T07:46:17.378Z,58.53
2023-07-25T07:51:19.405Z,57.88
2023-07-25T07:56:28.489Z,58.20
2023-07-25T08:01:42.028Z,58.33
2023-07-25T08:06:51.755Z,57.61
2023-07-25T08:12:16.883Z,57.34
2023-07-25T08:17:22.459Z,57.33
2023-07-25T08:22:27.602Z,56.86
2023-07-25T08:28:26.020Z,56.83
2023-07-25T08:33:33.021Z,57.25
2023-07-25T08:38:55.507Z,57.37
2023-07-25T08:44:04.363Z,56.07
2023-07-25T08:49:12.229Z,55.02
2023-07-25T08:54:22.233Z,54.68
2023-07-25T08:59:26.469Z,52.31
2023-07-25T09:04:32.726Z,51.68
2023-07-25T09:09:34.925Z,49.37
2023-07-25T09:14:54.025Z,48.98
2023-07-25T09:20:34.054Z,48.90
2023-07-25T09:25:45.407Z,47.99
2023-07-25T09:30:50.696Z,48.17
2023-07-25T09:35:56.111Z,49.07
2023-07-25T09:41:19.575Z,48.15
2023-07-25T09:46:33.215Z,47.24
2023-07-25T09:51:38.122Z,47.97
2023-07-25T09:56:42.209Z,48.78
2023-07-25T10:01:47.241Z,47.98
2023-07-25T10:06:52.249Z,50.88
2023-07-25T10:11:57.991Z,52.62
2023-07-25T10:17:02.784Z,53.74
2023-07-25T10:22:16.050Z,54.01
2023-07-25T10:27:20.028Z,53.92
2023-07-25T10:32:25.471Z,54.27
2023-07-25T10:37:39.405Z,54.72
2023-07-25T10:43:05.773Z,54.79
2023-07-25T10:48:27.515Z,54.64
2023-07-25T10:53:29.707Z,53.56
2023-07-25T10:58:38.807Z,53.44
2023-07-25T11:03:41.064Z,53.11
2023-07-25T11:08:43.821Z,52.61
2023-07-25T11:14:08.537Z,53.12
2023-07-25T11:19:11.556Z,52.78
2023-07-25T11:24:14.184Z,53.10
2023-07-25T11:29:18.335Z,53.79
2023-07-25T11:34:21.795Z,55.41
2023-07-25T11:39:24.194Z,56.83
2023-07-25T11:44:26.486Z,59.19
2023-07-25T11:54:39.011Z,60.49
2023-07-25T11:59:42.356Z,60.52
2023-07-25T12:04:46.338Z,61.63
2023-07-25T12:09:56.230Z,63.57
2023-07-25T12:15:03.036Z,64.43
2023-07-25T12:20:22.433Z,65.39
2023-07-25T12:25:24.968Z,66.30
2023-07-25T12:30:27.928Z,67.21
2023-07-25T12:35:35.002Z,67.25
2023-07-25T12:40:40.443Z,67.52
2023-07-25T12:46:11.467Z,68.51
2023-07-25T12:52:01.806Z,69.26
2023-07-25T12:57:29.750Z,69.65
2023-07-25T13:03:17.529Z,69.83
2023-07-25T13:08:43.489Z,69.98
2023-07-25T13:14:21.469Z,70.95
2023-07-25T13:19:45.201Z,70.07
2023-07-25T13:25:13.373Z,69.15
2023-07-25T13:30:21.864Z,69.04
2023-07-25T13:35:40.748Z,69.19
2023-07-25T13:40:46.450Z,68.73
2023-07-25T13:46:51.550Z,68.92
2023-07-25T13:52:10.551Z,69.85
2023-07-25T13:57:12.959Z,69.62
2023-07-25T14:02:38.989Z,69.64
2023-07-25T14:07:54.201Z,70.26
2023-07-25T14:12:59.210Z,71.08
2023-07-25T14:18:45.089Z,71.75
2023-07-25T14:23:55.448Z,71.17
2023-07-25T14:30:00.308Z,70.73
2023-07-25T14:35:22.929Z,71.90
2023-07-25T14:41:04.292Z,72.36
2023-07-25T14:46:57.308Z,73.75
2023-07-25T14:52:42.118Z,74.18
2023-07-25T14:58:07.256Z,73.64
2023-07-25T15:03:32.245Z,73.70
2023-07-25T15:09:55.566Z,74.22
2023-07-25T15:16:49.382Z,74.29
2023-07-25T15:22:27.990Z,74.85
2023-07-25T15:28:33.580Z,76.51
2023-07-25T15:34:28.124Z,77.27
2023-07-25T15:40:55.439Z,77.73
2023-07-25T15:47:07.159Z,77.31
2023-07-25T15:53:30.834Z,77.13
2023-07-25T15:59:53.950Z,77.36
2023-07-25T16:05:46.169Z,77.01
2023-07-25T16:11:43.337Z,77.02
2023-07-25T16:16:50.896Z,77.00
2023-07-25T16:23:27.553Z,75.58
2023-07-25T16:29:11.572Z,75.17
2023-07-25T16:34:57.273Z,74.57
2023-07-25T16:40:33.525Z,74.06
2023-07-25T16:45:54.099Z,73.03
2023-07-25T16:52:06.043Z,71.82
2023-07-25T16:57:33.540Z,71.35
2023-07-25T17:03:20.051Z,71.20
2023-07-25T17:08:53.485Z,70.89
2023-07-25T17:14:27.655Z,70.99
2023-07-25T17:20:32.054Z,70.98
2023-07-25T17:26:37.489Z,71.00
2023-07-25T17:32:43.561Z,70.93
2023-07-25T17:38:50.372Z,70.64
2023-07-25T17:45:34.771Z,71.15
2023-07-25T17:52:21.978Z,71.40
2023-07-25T17:58:54.886Z,72.31
2023-07-25T18:05:08.551Z,72.62
2023-07-25T18:11:00.794Z,72.80
2023-07-25T18:16:56.276Z,72.92
2023-07-25T18:22:40.782Z,73.08
2023-07-25T18:27:53.994Z,73.62
2023-07-25T18:33:32.078Z,74.03
2023-07-25T18:39:15.657Z,73.84
2023-07-25T18:45:38.933Z,76.02
2023-07-25T18:51:15.617Z,77.16
2023-07-25T18:57:34.814Z,76.95
2023-07-25T19:03:40.805Z,76.89
2023-07-25T19:10:19.165Z,76.97
2023-07-25T19:16:53.889Z,75.25
2023-07-25T19:23:40.588Z,75.61
2023-07-25T19:29:55.012Z,76.05
2023-07-25T19:36:02.420Z,76.93
2023-07-25T19:42:46.487Z,76.71
2023-07-25T19:48:27.616Z,76.73
2023-07-25T19:54:52.826Z,77.20
2023-07-25T20:00:32.713Z,77.55
2023-07-25T20:06:46.463Z,78.64
2023-07-25T20:13:21.361Z,77.89
2023-07-25T20:19:23.106Z,78.52
2023-07-25T20:25:17.216Z,79.26
2023-07-25T20:31:19.421Z,78.79
2023-07-25T20:37:12.434Z,78.41
2023-07-25T20:42:55.547Z,79.21
2023-07-25T20:49:32.878Z,81.19
2023-07-25T20:55:58.779Z,80.51
2023-07-25T21:02:27.074Z,81.08
2023-07-25T21:08:58.914Z,80.57
2023-07-25T21:14:57.403Z,80.18
2023-07-25T21:21:33.508Z,81.17
2023-07-25T21:27:55.821Z,81.03
2023-07-25T21:34:34.700Z,82.01
2023-07-25T21:40:51.821Z,81.98
2023-07-25T21:47:29.573Z,82.37
2023-07-25T21:53:20.807Z,82.87
2023-07-25T21:59:57.970Z,83.36
2023-07-25T22:06:07.733Z,83.51
2023-07-25T22:12:53.748Z,83.53
2023-07-25T22:19:20.839Z,83.61
2023-07-25T22:25:57.503Z,83.74
2023-07-25T22:32:53.690Z,83.42
2023-07-25T22:39:37.318Z,83.95
2023-07-25T22:46:22.161Z,83.62
2023-07-25T22:53:02.600Z,83.34
2023-07-25T22:59:51.243Z,83.38
2023-07-25T23:06:37.116Z,83.68
2023-07-25T23:12:43.532Z,84.54
2023-07-25T23:18:49.402Z,85.09
2023-07-25T23:24:04.205Z,84.37
2023-07-25T23:30:14.538Z,83.28
2023-07-25T23:36:47.684Z,82.58
2023-07-25T23:43:12.004Z,82.34
2023-07-25T23:49:16.407Z,82.89
2023-07-25T23:56:12.295Z,82.95
